createdAt,value
2018-11-26T00:01:35.644Z,9.93
2018-11-26T00:04:04.460Z,9.67
2018-11-26T00:06:33.260Z,11.17
2018-11-26T00:09:02.081Z,13.60
2018-11-26T00:11:34.036Z,14.07
2018-11-26T00:14:02.850Z,8.97
2018-11-26T00:16:31.644Z,15.17
2018-11-26T00:19:00.460Z,15.00
2018-11-26T00:21:29.265Z,11.20
2018-11-26T00:23:58.072Z,12.27
2018-11-26T00:26:26.908Z,10.33
2018-11-26T00:28:55.740Z,13.60
2018-11-26T00:31:24.552Z,16.90
2018-11-26T00:33:53.364Z,8.67
2018-11-26T00:36:22.172Z,11.07
2018-11-26T00:38:50.987Z,14.37
2018-11-26T00:41:19.796Z,6.70
2018-11-26T00:43:48.605Z,12.87
2018-11-26T00:46:17.604Z,8.73
2018-11-26T00:48:46.456Z,11.20
2018-11-26T00:51:15.262Z,10.00
2018-11-26T00:53:44.059Z,6.83
2018-11-26T00:56:12.856Z,9.90
2018-11-26T00:58:41.667Z,7.17
2018-11-26T01:01:10.463Z,10.03
2018-11-26T01:03:39.273Z,9.23
2018-11-26T01:06:08.067Z,15.57
2018-11-26T01:08:36.880Z,7.93
2018-11-26T01:11:06.338Z,10.23
2018-11-26T01:13:35.135Z,7.23
2018-11-26T01:16:03.941Z,6.77
2018-11-26T01:18:32.770Z,6.53
2018-11-26T01:21:01.578Z,7.60
2018-11-26T01:23:30.374Z,18.20
2018-11-26T01:25:59.184Z,10.20
2018-11-26T01:28:27.988Z,9.13
2018-11-26T01:30:56.848Z,6.03
2018-11-26T01:33:25.704Z,9.43
2018-11-26T01:35:54.515Z,9.97
2018-11-26T01:38:23.316Z,8.47
2018-11-26T01:40:52.927Z,11.37
2018-11-26T01:43:21.772Z,8.13
2018-11-26T01:45:50.569Z,9.47
2018-11-26T01:48:19.372Z,8.37
2018-11-26T01:50:48.182Z,6.07
2018-11-26T01:53:16.979Z,9.90
2018-11-26T01:55:45.786Z,8.73
2018-11-26T01:58:14.583Z,8.03
2018-11-26T02:00:43.392Z,9.37
2018-11-26T02:03:12.179Z,9.37
2018-11-26T02:05:40.977Z,11.50
2018-11-26T02:08:09.787Z,7.93
2018-11-26T02:10:38.595Z,9.77
2018-11-26T02:13:07.416Z,7.77
2018-11-26T02:15:38.039Z,9.73
2018-11-26T02:18:07.523Z,7.70
2018-11-26T02:20:36.340Z,9.57
2018-11-26T02:23:05.166Z,8.73
2018-11-26T02:25:33.974Z,8.70
2018-11-26T02:28:02.771Z,8.60
2018-11-26T02:30:31.574Z,10.83
2018-11-26T02:33:00.381Z,13.93
2018-11-26T02:35:29.187Z,12.37
2018-11-26T02:37:57.974Z,8.50
2018-11-26T02:40:28.534Z,9.00
2018-11-26T02:42:57.334Z,9.50
2018-11-26T02:45:26.152Z,11.50
2018-11-26T02:47:54.958Z,9.87
2018-11-26T02:50:23.763Z,7.30
2018-11-26T02:52:52.564Z,7.73
2018-11-26T02:55:21.370Z,12.13
2018-11-26T02:57:50.144Z,8.50
2018-11-26T03:00:18.964Z,10.10
2018-11-26T03:02:47.755Z,11.63
2018-11-26T03:05:23.350Z,9.67
2018-11-26T03:07:52.215Z,12.20
2018-11-26T03:10:21.043Z,8.00
2018-11-26T03:12:49.835Z,9.90
2018-11-26T03:15:18.731Z,13.70
2018-11-26T03:17:47.532Z,11.00
2018-11-26T03:20:16.346Z,12.10
2018-11-26T03:22:45.150Z,10.43
2018-11-26T03:25:13.979Z,12.47
2018-11-26T03:27:42.943Z,12.23
2018-11-26T03:30:13.107Z,10.87
2018-11-26T03:32:41.907Z,14.33
2018-11-26T03:35:10.798Z,11.73
2018-11-26T03:37:39.612Z,10.50
2018-11-26T03:40:10.738Z,16.87
2018-11-26T03:42:39.551Z,12.13
2018-11-26T03:45:11.603Z,13.27
2018-11-26T03:47:40.403Z,11.30
2018-11-26T03:50:09.806Z,20.93
2018-11-26T03:52:38.618Z,12.70
2018-11-26T03:55:08.684Z,13.93
2018-11-26T03:57:37.504Z,13.40
2018-11-26T04:00:09.122Z,14.03
2018-11-26T04:02:37.926Z,14.13
2018-11-26T04:05:07.507Z,12.23
2018-11-26T04:07:36.311Z,13.90
2018-11-26T04:10:07.016Z,7.87
2018-11-26T04:12:35.822Z,8.93
2018-11-26T04:15:04.866Z,11.90
2018-11-26T04:17:33.670Z,14.70
2018-11-26T04:20:02.472Z,13.63
2018-11-26T04:22:31.283Z,11.33
2018-11-26T04:25:00.064Z,9.83
2018-11-26T04:27:28.880Z,11.40
2018-11-26T04:29:57.815Z,12.53
2018-11-26T04:32:26.626Z,13.07
2018-11-26T04:34:55.431Z,11.93
2018-11-26T04:37:24.247Z,11.57
2018-11-26T04:39:53.043Z,15.13
2018-11-26T04:42:21.863Z,9.80
2018-11-26T04:44:50.669Z,11.47
2018-11-26T04:47:19.538Z,11.97
2018-11-26T04:49:48.334Z,12.53
2018-11-26T04:52:17.167Z,13.60
2018-11-26T04:54:45.971Z,11.30
2018-11-26T04:57:15.782Z,12.10
2018-11-26T04:59:44.577Z,9.97
2018-11-26T05:02:13.382Z,11.10
2018-11-26T05:04:42.174Z,11.53
2018-11-26T05:07:10.971Z,14.73
2018-11-26T05:09:39.767Z,14.20
2018-11-26T05:12:08.783Z,10.13
2018-11-26T05:14:37.606Z,13.77
2018-11-26T05:17:06.422Z,12.50
2018-11-26T05:19:35.215Z,16.80
2018-11-26T05:22:04.099Z,15.37
2018-11-26T05:24:32.904Z,12.67
2018-11-26T05:27:01.712Z,8.60
2018-11-26T05:29:30.519Z,12.63
2018-11-26T05:31:59.322Z,16.33
2018-11-26T05:34:28.130Z,12.87
2018-11-26T05:36:56.915Z,9.30
2018-11-26T05:39:25.714Z,15.00
2018-11-26T05:41:54.516Z,16.43
2018-11-26T05:44:23.323Z,13.83
2018-11-26T05:46:52.124Z,13.90
2018-11-26T05:49:20.933Z,9.87
2018-11-26T05:51:49.748Z,12.97
2018-11-26T05:54:18.787Z,8.60
2018-11-26T05:56:47.721Z,10.27
2018-11-26T05:59:16.542Z,10.47
2018-11-26T06:01:45.378Z,12.30
2018-11-26T06:04:14.194Z,10.63
2018-11-26T06:06:42.994Z,8.47
2018-11-26T06:09:12.016Z,11.53
2018-11-26T06:11:40.959Z,8.97
2018-11-26T06:14:09.763Z,8.87
2018-11-26T06:16:38.566Z,10.90
2018-11-26T06:19:07.403Z,14.87
2018-11-26T06:21:36.246Z,11.10
2018-11-26T06:24:05.189Z,11.70
2018-11-26T06:26:33.987Z,12.67
2018-11-26T06:29:02.823Z,10.80
2018-11-26T06:31:31.619Z,9.87
2018-11-26T06:34:00.431Z,12.47
2018-11-26T06:36:29.340Z,10.80
2018-11-26T06:38:58.278Z,10.53
2018-11-26T06:41:27.094Z,18.17
2018-11-26T06:43:55.882Z,10.70
2018-11-26T06:46:24.703Z,10.63
2018-11-26T06:48:53.506Z,12.10
2018-11-26T06:51:22.311Z,12.00
2018-11-26T06:53:51.106Z,8.03
2018-11-26T06:56:19.907Z,13.27
2018-11-26T06:58:48.714Z,22.47
2018-11-26T07:01:17.522Z,14.07
2018-11-26T07:03:46.356Z,12.97
2018-11-26T07:06:15.159Z,13.60
2018-11-26T07:08:43.959Z,14.13
2018-11-26T07:11:12.758Z,14.67
2018-11-26T07:13:41.571Z,14.57
2018-11-26T07:16:10.367Z,14.70
2018-11-26T07:18:39.366Z,11.17
2018-11-26T07:21:08.387Z,16.97
2018-11-26T07:23:37.239Z,17.97
2018-11-26T07:26:06.061Z,11.97
2018-11-26T07:28:34.867Z,17.53
2018-11-26T07:31:03.675Z,16.93
2018-11-26T07:33:32.471Z,12.53
2018-11-26T07:36:01.286Z,10.87
2018-11-26T07:38:30.083Z,10.17
2018-11-26T07:40:58.891Z,21.67
2018-11-26T07:43:27.682Z,11.23
2018-11-26T07:45:56.486Z,10.10
2018-11-26T07:48:25.287Z,13.00
2018-11-26T07:50:54.094Z,13.67
2018-11-26T07:53:22.942Z,12.90
2018-11-26T07:55:51.758Z,14.73
2018-11-26T07:58:20.558Z,8.90
2018-11-26T08:00:49.390Z,12.20
2018-11-26T08:03:18.278Z,10.67
2018-11-26T08:05:47.083Z,7.90
2018-11-26T08:08:15.998Z,25.90
2018-11-26T08:10:44.815Z,10.13
2018-11-26T08:13:13.610Z,10.13
2018-11-26T08:15:42.411Z,8.03
2018-11-26T08:18:11.216Z,11.83
2018-11-26T08:20:40.027Z,8.57
2018-11-26T08:23:08.829Z,7.70
2018-11-26T08:25:37.623Z,8.53
2018-11-26T08:28:06.738Z,6.17
2018-11-26T08:30:35.558Z,9.27
2018-11-26T08:33:04.407Z,4.40
2018-11-26T08:35:33.226Z,5.80
2018-11-26T08:38:08.279Z,8.57
2018-11-26T08:40:42.843Z,4.67
2018-11-26T08:43:17.143Z,5.67
2018-11-26T08:45:52.343Z,5.30
2018-11-26T08:48:26.756Z,4.73
2018-11-26T08:50:56.528Z,5.73
2018-11-26T08:53:25.319Z,5.57
2018-11-26T08:55:54.134Z,5.67
2018-11-26T08:58:22.930Z,4.90
2018-11-26T09:00:57.002Z,6.93
2018-11-26T09:03:31.234Z,6.13
2018-11-26T09:06:01.874Z,5.30
2018-11-26T09:08:31.558Z,4.00
2018-11-26T09:11:00.843Z,4.83
2018-11-26T09:13:29.730Z,5.10
2018-11-26T09:15:58.531Z,3.53
2018-11-26T09:18:27.343Z,7.35
2018-11-26T09:20:56.142Z,9.30
2018-11-26T09:23:24.958Z,4.97
2018-11-26T09:25:53.785Z,4.37
2018-11-26T09:28:22.624Z,5.13
2018-11-26T09:30:51.429Z,6.33
2018-11-26T09:33:20.222Z,5.90
2018-11-26T09:35:49.030Z,5.63
2018-11-26T09:38:17.843Z,5.80
2018-11-26T09:40:46.668Z,5.80
2018-11-26T09:43:15.463Z,4.47
2018-11-26T09:45:44.290Z,5.43
2018-11-26T09:48:13.195Z,4.60
2018-11-26T09:50:41.994Z,6.50
2018-11-26T09:53:10.806Z,4.03
2018-11-26T09:55:39.602Z,4.73
2018-11-26T09:58:08.407Z,6.00
2018-11-26T10:00:37.211Z,3.67
2018-11-26T10:03:06.039Z,3.83
2018-11-26T10:05:34.855Z,3.67
2018-11-26T10:08:03.673Z,3.63
2018-11-26T10:10:32.481Z,4.37
2018-11-26T10:13:01.289Z,3.90
2018-11-26T10:15:30.093Z,3.90
2018-11-26T10:17:58.895Z,4.93
2018-11-26T10:20:27.698Z,4.77
2018-11-26T10:22:56.490Z,5.17
2018-11-26T10:25:25.290Z,3.17
2018-11-26T10:27:54.142Z,4.40
2018-11-26T10:30:23.972Z,3.20
2018-11-26T10:32:53.282Z,5.23
2018-11-26T10:35:22.319Z,4.13
2018-11-26T10:37:51.140Z,4.30
2018-11-26T10:40:24.490Z,3.93
2018-11-26T10:42:53.300Z,4.00
2018-11-26T10:45:22.950Z,3.97
2018-11-26T10:47:51.767Z,4.23
2018-11-26T10:50:21.995Z,5.40
2018-11-26T10:52:54.971Z,5.90
2018-11-26T10:55:25.167Z,5.40
2018-11-26T10:57:54.078Z,3.93
2018-11-26T11:00:28.188Z,4.67
2018-11-26T11:02:56.979Z,5.83
2018-11-26T11:05:25.775Z,4.27
2018-11-26T11:07:54.916Z,4.33
2018-11-26T11:10:26.482Z,4.23
2018-11-26T11:12:55.296Z,4.70
2018-11-26T11:15:24.110Z,4.23
2018-11-26T11:17:52.979Z,3.33
2018-11-26T11:20:25.039Z,4.20
2018-11-26T11:22:53.856Z,6.30
2018-11-26T11:25:26.270Z,3.37
2018-11-26T11:27:54.788Z,3.73
2018-11-26T11:30:28.063Z,4.23
2018-11-26T11:32:56.880Z,5.03
2018-11-26T11:35:25.676Z,6.50
2018-11-26T11:37:54.921Z,4.53
2018-11-26T11:40:26.561Z,4.50
2018-11-26T11:42:55.593Z,4.53
2018-11-26T11:45:24.868Z,5.87
2018-11-26T11:47:53.709Z,3.30
2018-11-26T11:50:22.696Z,7.17
2018-11-26T11:52:51.747Z,3.70
2018-11-26T11:55:23.212Z,5.27
2018-11-26T11:57:52.244Z,9.03
2018-11-26T12:00:33.969Z,4.03
2018-11-26T12:03:07.054Z,7.27
2018-11-26T12:05:35.844Z,3.90
2018-11-26T12:08:05.032Z,3.90
2018-11-26T12:10:33.836Z,4.30
2018-11-26T12:13:02.649Z,2.67
2018-11-26T12:15:31.448Z,3.53
2018-11-26T12:18:00.253Z,3.03
2018-11-26T12:20:29.052Z,2.83
2018-11-26T12:22:57.870Z,2.67
2018-11-26T12:25:26.669Z,3.07
2018-11-26T12:27:55.752Z,3.33
2018-11-26T12:30:25.624Z,2.97
2018-11-26T12:32:54.534Z,3.73
2018-11-26T12:35:23.557Z,3.03
2018-11-26T12:37:52.479Z,4.40
2018-11-26T12:40:22.335Z,3.90
2018-11-26T12:42:57.285Z,3.20
2018-11-26T12:45:27.272Z,2.90
2018-11-26T12:47:56.315Z,3.60
2018-11-26T12:50:25.130Z,2.73
2018-11-26T12:52:53.969Z,3.17
2018-11-26T12:55:23.348Z,3.03
2018-11-26T12:57:52.956Z,3.57
2018-11-26T13:00:24.720Z,3.10
2018-11-26T13:02:59.784Z,3.43
2018-11-26T13:05:28.676Z,2.60
2018-11-26T13:07:57.508Z,3.73
2018-11-26T13:10:26.337Z,2.90
2018-11-26T13:12:55.295Z,6.13
2018-11-26T13:15:25.523Z,3.83
2018-11-26T13:17:54.486Z,3.73
2018-11-26T13:20:25.035Z,5.00
2018-11-26T13:22:54.300Z,5.03
2018-11-26T13:25:29.344Z,4.27
2018-11-26T13:28:00.499Z,4.73
2018-11-26T13:30:31.431Z,6.47
2018-11-26T13:33:01.291Z,6.30
2018-11-26T13:35:30.156Z,4.90
2018-11-26T13:37:58.991Z,3.73
2018-11-26T13:40:30.535Z,5.13
2018-11-26T13:42:59.481Z,3.17
2018-11-26T13:45:33.271Z,4.30
2018-11-26T13:48:02.725Z,4.17
2018-11-26T13:50:35.119Z,3.97
2018-11-26T13:53:04.037Z,3.00
2018-11-26T13:55:32.876Z,3.77
2018-11-26T13:58:01.699Z,4.93
2018-11-26T14:00:32.600Z,2.70
2018-11-26T14:03:01.432Z,3.73
2018-11-26T14:05:30.276Z,4.10
2018-11-26T14:07:59.084Z,3.70
2018-11-26T14:10:28.304Z,3.53
2018-11-26T14:12:59.604Z,4.20
2018-11-26T14:15:28.428Z,4.17
2018-11-26T14:17:57.237Z,3.33
2018-11-26T14:20:26.273Z,4.07
2018-11-26T14:22:54.880Z,4.53
2018-11-26T14:25:23.729Z,4.23
2018-11-26T14:27:52.547Z,4.03
2018-11-26T14:30:22.575Z,5.23
2018-11-26T14:32:51.542Z,3.40
2018-11-26T14:35:20.509Z,4.10
2018-11-26T14:37:50.550Z,3.97
2018-11-26T14:40:25.031Z,4.37
2018-11-26T14:42:54.004Z,4.50
2018-11-26T14:45:23.013Z,4.57
2018-11-26T14:47:51.927Z,6.63
2018-11-26T14:50:20.821Z,4.87
2018-11-26T14:52:50.192Z,3.97
2018-11-26T14:55:23.163Z,4.33
2018-11-26T14:57:52.004Z,4.87
2018-11-26T15:00:21.273Z,6.27
2018-11-26T15:02:50.092Z,4.20
2018-11-26T15:05:18.931Z,5.50
2018-11-26T15:07:48.794Z,5.50
2018-11-26T15:10:20.824Z,6.00
2018-11-26T15:12:49.878Z,4.83
2018-11-26T15:15:21.199Z,4.23
2018-11-26T15:17:50.229Z,6.77
2018-11-26T15:20:23.248Z,6.20
2018-11-26T15:22:53.096Z,4.50
2018-11-26T15:25:23.104Z,4.17
2018-11-26T15:27:53.106Z,5.10
2018-11-26T15:30:22.446Z,4.87
2018-11-26T15:32:51.336Z,5.30
2018-11-26T15:35:21.618Z,5.17
2018-11-26T15:37:50.608Z,4.47
2018-11-26T15:40:20.520Z,5.87
2018-11-26T15:42:49.617Z,4.90
2018-11-26T15:45:25.617Z,6.40
2018-11-26T15:47:58.908Z,6.00
2018-11-26T15:50:27.875Z,5.37
2018-11-26T15:52:56.757Z,5.30
2018-11-26T15:55:25.793Z,6.87
2018-11-26T15:57:54.709Z,6.10
2018-11-26T16:00:24.802Z,6.03
2018-11-26T16:02:53.797Z,6.20
2018-11-26T16:05:30.614Z,6.90
2018-11-26T16:08:02.217Z,6.37
2018-11-26T16:10:31.120Z,6.80
2018-11-26T16:13:01.095Z,9.60
2018-11-26T16:15:36.437Z,7.30
2018-11-26T16:18:10.067Z,8.77
2018-11-26T16:20:39.046Z,7.23
2018-11-26T16:23:09.163Z,9.00
2018-11-26T16:25:40.176Z,7.10
2018-11-26T16:28:09.579Z,9.37
2018-11-26T16:30:38.522Z,6.73
2018-11-26T16:33:07.913Z,6.67
2018-11-26T16:35:36.984Z,7.87
2018-11-26T16:38:06.416Z,13.10
2018-11-26T16:40:35.309Z,13.70
2018-11-26T16:43:04.301Z,8.37
2018-11-26T16:45:33.183Z,8.13
2018-11-26T16:48:02.034Z,13.07
2018-11-26T16:50:32.408Z,8.40
2018-11-26T16:53:01.236Z,7.30
2018-11-26T16:55:30.096Z,7.27
2018-11-26T16:57:58.956Z,7.57
2018-11-26T17:00:29.162Z,8.07
2018-11-26T17:02:59.029Z,7.97
2018-11-26T17:05:40.065Z,9.40
2018-11-26T17:08:10.729Z,7.73
2018-11-26T17:10:39.693Z,7.57
2018-11-26T17:13:08.938Z,5.60
2018-11-26T17:15:39.746Z,7.30
2018-11-26T17:18:08.638Z,9.23
2018-11-26T17:20:37.782Z,8.33
2018-11-26T17:23:07.057Z,9.90
2018-11-26T17:25:35.913Z,8.93
2018-11-26T17:28:05.332Z,8.37
2018-11-26T17:30:34.308Z,10.17
2018-11-26T17:33:04.163Z,7.90
2018-11-26T17:35:33.092Z,11.13
2018-11-26T17:38:01.984Z,10.03
2018-11-26T17:40:30.865Z,12.23
2018-11-26T17:42:59.720Z,11.40
2018-11-26T17:45:29.750Z,9.10
2018-11-26T17:47:59.545Z,9.30
2018-11-26T17:50:40.411Z,11.07
2018-11-26T17:53:13.619Z,9.93
2018-11-26T17:55:46.193Z,10.43
2018-11-26T17:58:15.045Z,11.77
2018-11-26T18:00:45.184Z,10.00
2018-11-26T18:03:14.018Z,10.90
2018-11-26T18:05:42.968Z,9.37
2018-11-26T18:08:19.192Z,11.50
2018-11-26T18:10:48.001Z,9.43
2018-11-26T18:13:16.804Z,14.47
2018-11-26T18:15:45.708Z,12.93
2018-11-26T18:18:16.936Z,13.03
2018-11-26T18:20:46.152Z,11.30
2018-11-26T18:23:14.964Z,12.50
2018-11-26T18:25:43.979Z,13.07
2018-11-26T18:28:14.063Z,12.63
2018-11-26T18:30:44.109Z,16.20
2018-11-26T18:33:12.923Z,13.40
2018-11-26T18:35:42.328Z,13.90
2018-11-26T18:38:11.285Z,13.50
2018-11-26T18:40:41.232Z,10.73
2018-11-26T18:43:10.165Z,12.20
2018-11-26T18:45:39.747Z,18.93
2018-11-26T18:48:09.560Z,14.40
2018-11-26T18:50:38.613Z,14.20
2018-11-26T18:53:08.700Z,14.67
2018-11-26T18:55:38.489Z,16.53
2018-11-26T18:58:08.361Z,16.03
2018-11-26T19:00:47.428Z,13.57
2018-11-26T19:03:18.804Z,12.30
2018-11-26T19:05:48.629Z,14.67
2018-11-26T19:08:17.524Z,16.27
2018-11-26T19:10:47.024Z,16.80
2018-11-26T19:13:27.810Z,18.73
2018-11-26T19:16:05.670Z,11.93
2018-11-26T19:18:34.500Z,14.50
2018-11-26T19:21:03.348Z,11.37
2018-11-26T19:23:32.232Z,14.87
2018-11-26T19:26:01.080Z,15.67
2018-11-26T19:28:29.920Z,14.83
2018-11-26T19:30:58.756Z,11.13
2018-11-26T19:33:27.685Z,11.73
2018-11-26T19:35:56.624Z,10.27
2018-11-26T19:38:25.508Z,11.17
2018-11-26T19:40:54.469Z,16.97
2018-11-26T19:43:23.352Z,13.70
2018-11-26T19:45:52.284Z,11.27
2018-11-26T19:48:21.532Z,12.47
2018-11-26T19:50:50.644Z,13.93
2018-11-26T19:53:19.726Z,12.37
2018-11-26T19:55:48.644Z,12.80
2018-11-26T19:58:17.524Z,12.63
2018-11-26T20:00:46.506Z,12.10
2018-11-26T20:03:18.993Z,13.27
2018-11-26T20:06:01.398Z,12.53
2018-11-26T20:08:31.743Z,12.00
2018-11-26T20:11:01.116Z,11.50
2018-11-26T20:13:29.939Z,11.03
2018-11-26T20:15:58.848Z,8.67
2018-11-26T20:18:28.583Z,13.70
2018-11-26T20:20:56.712Z,16.23
2018-11-26T20:23:25.604Z,26.20
2018-11-26T20:25:54.468Z,17.20
2018-11-26T20:28:23.352Z,18.67
2018-11-26T20:30:52.332Z,12.93
2018-11-26T20:33:21.164Z,11.30
2018-11-26T20:35:50.380Z,9.73
2018-11-26T20:38:19.518Z,10.17
2018-11-26T20:40:48.342Z,10.97
2018-11-26T20:43:18.892Z,10.03
2018-11-26T20:45:50.626Z,13.33
2018-11-26T20:48:19.440Z,12.50
2018-11-26T20:50:51.284Z,12.00
2018-11-26T20:53:22.579Z,15.50
2018-11-26T20:55:51.784Z,12.87
2018-11-26T20:58:20.592Z,12.57
2018-11-26T21:00:49.941Z,14.27
2018-11-26T21:03:18.864Z,9.07
2018-11-26T21:05:47.781Z,12.60
2018-11-26T21:08:16.641Z,9.33
2018-11-26T21:10:45.497Z,15.63
2018-11-26T21:13:16.952Z,9.83
2018-11-26T21:15:43.232Z,12.47
2018-11-26T21:18:13.001Z,9.70
2018-11-26T21:20:43.462Z,11.30
2018-11-26T21:23:15.970Z,11.13
2018-11-26T21:25:44.820Z,8.60
2018-11-26T21:28:13.704Z,8.57
2018-11-26T21:30:42.644Z,10.53
2018-11-26T21:33:11.572Z,7.63
2018-11-26T21:35:40.540Z,9.37
2018-11-26T21:38:11.672Z,11.97
2018-11-26T21:40:40.936Z,8.00
2018-11-26T21:43:10.716Z,9.90
2018-11-26T21:45:45.072Z,9.27
2018-11-26T21:48:13.887Z,8.27
2018-11-26T21:50:42.774Z,11.17
2018-11-26T21:53:11.729Z,11.60
2018-11-26T21:55:40.533Z,9.53
2018-11-26T21:58:09.428Z,10.17
2018-11-26T22:00:38.953Z,14.20
2018-11-26T22:03:09.577Z,11.27
2018-11-26T22:05:40.273Z,13.57
2018-11-26T22:08:09.864Z,8.17
2018-11-26T22:10:39.620Z,9.27
2018-11-26T22:13:09.756Z,9.00
2018-11-26T22:15:38.556Z,12.17
2018-11-26T22:18:07.685Z,9.03
2018-11-26T22:20:36.489Z,9.67
2018-11-26T22:23:05.772Z,11.83
2018-11-26T22:25:34.582Z,17.87
2018-11-26T22:28:04.213Z,11.00
2018-11-26T22:30:33.558Z,10.50
2018-11-26T22:33:02.375Z,12.17
2018-11-26T22:35:31.176Z,11.30
2018-11-26T22:37:59.996Z,11.17
2018-11-26T22:40:28.792Z,11.13
2018-11-26T22:42:57.624Z,11.23
2018-11-26T22:45:32.272Z,8.07
2018-11-26T22:48:04.540Z,14.33
2018-11-26T22:50:33.344Z,13.60
2018-11-26T22:53:02.184Z,9.80
2018-11-26T22:55:30.980Z,9.60
2018-11-26T22:57:59.796Z,12.30
2018-11-26T23:00:38.038Z,9.57
2018-11-26T23:03:06.869Z,11.40
2018-11-26T23:05:35.688Z,12.90
2018-11-26T23:08:04.548Z,11.07
2018-11-26T23:10:33.365Z,11.73
2018-11-26T23:13:02.190Z,9.43
2018-11-26T23:15:31.052Z,13.70
2018-11-26T23:18:00.140Z,11.87
2018-11-26T23:20:28.964Z,8.63
2018-11-26T23:22:57.764Z,8.60
2018-11-26T23:25:26.566Z,9.03
2018-11-26T23:27:55.377Z,14.07
2018-11-26T23:30:25.264Z,10.17
2018-11-26T23:32:59.088Z,12.90
2018-11-26T23:35:27.908Z,13.03
2018-11-26T23:37:56.708Z,9.83
2018-11-26T23:40:25.524Z,10.10
2018-11-26T23:42:54.333Z,10.10
2018-11-26T23:45:25.144Z,10.33
2018-11-26T23:47:53.953Z,8.50
2018-11-26T23:50:22.759Z,9.77
2018-11-26T23:52:51.552Z,9.20
2018-11-26T23:55:21.320Z,10.33
2018-11-26T23:57:50.136Z,8.33
